Terminal Aerodrome Forecast
Issued by NWS

Home | Current Version | Previous Version | Graphics & Text | Print | Product List | Glossary On
Versions: 1 2 3 4 5 6 7 8 9 10 11 12 13 14 15 16 17 18 19 20 21
000
FTUS43 KGRB 250500
TAFMTW
TAF
KMTW 250520Z 2506/2606 05014G22KT P6SM -SN BKN018 OVC025
      TEMPO 2511/2515 4SM -SHSN
     FM251800 04013G19KT P6SM SCT022 SCT035
     FM252300 04011KT P6SM SCT200=

USA.gov is the U.S. government's official web portal to all federal, state and local government web resources and services.